Startpagina
METAR-TAF:

METAR-TAF

Vliegvelden :

Luchthaven Ivato

Antananarivo, Madagaskar

breedte: 18-48S, lengte: 047-29E, hoogte: 1279 m

Actueel weer

Dit bericht is 27 minuten geleden gemaakt, om 05:00 UTC
Wind 9 kt uit het zuidzuidoosten, variërend tussen het oostzuidoosten en het zuiden
Temperatuur 15°C
Vochtigheid 82%
Druk 1023 hPa
Zicht 10 km of meer
Weinig wolken op 1000 ft
Gebroken wolken op 2000 ft

METAR: FMMI 210500Z 15009KT 110V190 9999 FEW010 BKN020 15/12 Q1023 NOSIG

Tijdstip: 08:27 (05:27 UTC)

Verwachting

Dit bericht is 6 uur en het 27 minuten geleden gemaakt, om 23:00 UTC
Verwachting geldig van 21 om 00 UTC tot 22 om 06 UTC
Wind 10 kt uit het zuidoosten
Zicht 10 km of meer
Verspreide wolken op 1700 ft
Verspreide wolken op 2000 ft

TAF: FMMI 202300Z 2100/2206 14010KT 9999 SCT017 SCT020

Waarnemingen en weersverwachtingen van meer dan 4000 vliegvelden (METAR en TAF).

De beschikbare stations zijn de gele en rode punten op de kaart.

Ga met uw muis naar het station om de naam te zien.

Klik dan om waarnemingen en weersverwachtingen te zien.

kaart wijzigen: klik op de groene knoppen met een zwart kruis om in te zoomen, op de groene knop met een streepje om uit te zoomen of op de groene pijlen voor aangrenzende kaarten.


METAR-TAF: